Algodones, New Mexico
Current Conditions -  °F | °C
As of 2:52 AM on Tuesday 27 Jan 2015 (Local Time) from KABQ Reporting Station
Few Clouds Few Clouds  
Wind Chill: 39°   Ceiling: Unl
Heat Index: 39°   Visibility: 10mi
Dew Point: 27°   Wind: 3mph
Humidity: 62%   Direction: 350°N
Pressure: 30.34"   Gusts: NA
Location:  35.38°N, 106.48°W
Report Text: KABQ 270952Z 35003KT 10SM FEW240 04/M03 A3034 RMK AO2 SLP248 T00391028
Loading
Personal Weather Stations






























Interactive Weather Map New forecast layout! Learn more

10-Day Weather Forecast

Advertisements
Track Severe Weather on mobile